Latest Weather Observations for Bathurst Airport

IDN60801

Issued at 4:13 am EST Wednesday 23 September 2020 (issued every 10 minutes, with the page automatically refreshed every 10 minutes)

About weather observations | Map of weather stations | Latest weather observations for NSW | Other Formats
Station Details ID: 063291 Name: BATHURST AIRPORT AWS Lat: -33.41 Lon: 149.65 Height: 744.5 m
Data from the previous 72 hours. | See also: Recent months at Bathurst Airport
Date/Time
EST
Temp
°C
App
Temp
°C
Dew
Point
°C
Rel
Hum
%
Delta-T
°C
Wind Press
QNH
hPa
Press
MSL
hPa
Rain since
9am
mm
Dir  Spd
km/h
Gust
km/h
Spd
kts
Gust
kts
23/04:00am 7.6 6.6 5.4 86 1.0 CALM 0 0 0 0 1014.8 1014.3 0.0
23/03:30am 7.6 6.5 5.2 85 1.1 CALM 0 0 0 0 1015.0 1014.5 0.0
23/03:00am 7.5 6.5 5.5 87 0.9 CALM 0 0 0 0 1015.2 1014.7 0.0
23/02:30am 7.3 6.3 5.8 90 0.7 CALM 0 0 0 0 1015.5 1015.1 0.0
23/02:00am 8.1 5.7 5.4 83 1.3 SSW 7 9 4 5 1015.7 1015.3 0.0
23/01:30am 8.6 5.0 5.0 78 1.7 SW 13 20 7 11 1016.1 1015.6 0.0
23/01:00am 8.3 5.1 5.2 81 1.4 WSW 11 13 6 7 1016.4 1015.9 0.0
23/12:30am 9.1 5.6 5.3 77 1.8 W 13 17 7 9 1016.5 1016.0 0.0
23/12:00am 9.8 6.0 6.0 77 1.8 W 15 20 8 11 1016.4 1015.9 0.0
 
Date/Time
EST
Temp
°C
App
Temp
°C
Dew
Point
°C
Rel
Hum
%
Delta-T
°C
Wind Press
QNH
hPa
Press
MSL
hPa
Rain since
9am
mm
Dir  Spd
km/h
Gust
km/h
Spd
kts
Gust
kts
22/11:30pm 9.4 6.3 7.3 87 1.0 WNW 13 17 7 9 1016.3 1015.8 0.0
22/11:00pm 9.7 7.0 7.3 85 1.2 WNW 11 13 6 7 1016.3 1015.8 0.0
22/10:30pm 10.3 8.4 7.4 82 1.4 WNW 7 9 4 5 1016.1 1015.6 0.0
22/10:00pm 10.2 8.3 7.4 83 1.4 NNW 7 11 4 6 1015.9 1015.5 0.0
22/09:30pm 10.1 8.2 7.7 85 1.2 NNE 7 9 4 5 1015.9 1015.5 0.0
22/09:00pm 11.1 9.1 7.2 77 1.9 NNW 7 7 4 4 1015.9 1015.5 0.0
22/08:30pm 11.7 10.7 7.2 74 2.3 W 2 7 1 4 1016.1 1015.6 0.0
22/08:00pm 11.3 10.1 8.2 81 1.6 W 4 9 2 5 1015.9 1015.5 0.0
22/07:30pm 12.1 9.8 7.4 73 2.4 WSW 9 9 5 5 1015.5 1015.1 0.0
22/07:00pm 12.2 9.8 7.1 71 2.6 WSW 9 11 5 6 1015.1 1014.6 0.0
22/06:30pm 12.1 9.6 6.6 69 2.7 W 9 11 5 6 1014.8 1014.3 0.0
22/06:00pm 12.9 9.9 6.0 63 3.4 W 11 15 6 8 1014.4 1014.0 0.0
22/05:30pm 14.9 10.2 5.1 52 4.8 W 19 28 10 15 1014.3 1013.9 0.0
22/05:00pm 15.9 9.3 4.3 46 5.6 W 28 39 15 21 1014.0 1013.5 0.0
22/04:30pm 16.9 10.8 4.6 44 6.1 W 26 37 14 20 1013.6 1013.1 0.0
22/04:00pm 17.3 11.4 5.6 46 5.9 WNW 26 37 14 20 1013.4 1012.9 0.0
22/03:30pm 17.8 11.8 5.4 44 6.2 W 26 35 14 19 1013.5 1013.0 0.0
22/03:00pm 18.1 11.9 4.3 40 6.8 W 26 35 14 19 1013.4 1012.9 0.0
22/02:30pm 18.2 12.4 4.4 40 6.8 W 24 32 13 17 1013.4 1012.9 0.0
22/02:00pm 18.2 11.7 4.7 41 6.7 WNW 28 39 15 21 1013.3 1012.8 0.0
22/01:30pm 18.0 10.7 2.7 36 7.3 WNW 30 43 16 23 1013.5 1013.0 0.0
22/01:00pm 18.0 11.7 3.9 39 6.9 WNW 26 35 14 19 1013.6 1013.1 0.0
22/12:30pm 17.6 11.6 3.5 39 6.8 WNW 24 35 13 19 1013.8 1013.3 0.0
22/12:00pm 17.4 11.3 5.0 44 6.2 WNW 26 39 14 21 1013.9 1013.4 0.0
22/11:30am 17.3 11.2 4.9 44 6.2 WNW 26 33 14 18 1014.0 1013.5 0.0
22/11:00am 17.3 12.1 3.6 40 6.6 WNW 20 35 11 19 1014.1 1013.6 0.0
22/10:30am 16.7 12.4 5.3 47 5.7 W 17 24 9 13 1014.4 1014.0 0.0
22/10:00am 15.9 10.3 3.4 43 6.0 W 22 32 12 17 1014.4 1014.0 0.0
22/09:30am 15.4 11.2 5.9 53 4.8 WNW 17 28 9 15 1014.3 1013.9 0.0
22/09:00am 15.0 12.7 8.9 67 3.2 WNW 11 19 6 10 1014.4 1014.0 11.6
22/08:30am 14.2 11.7 8.4 68 3.0 WNW 11 19 6 10 1014.2 1013.7 11.6
22/08:00am 13.5 12.6 9.2 75 2.3 W 4 7 2 4 1014.1 1013.6 11.6
22/07:30am 12.9 12.0 9.4 79 1.9 W 4 7 2 4 1013.7 1013.2 11.6
22/07:00am 11.9 11.8 9.6 86 1.2 CALM 0 0 0 0 1013.5 1013.0 11.6
22/06:30am 11.0 10.9 9.4 90 0.8 CALM 0 0 0 0 1013.2 1012.7 11.6
22/06:00am 11.5 10.5 10.4 93 0.6 WSW 6 11 3 6 1012.9 1012.4 11.6
22/05:30am 11.8 10.6 10.4 91 0.8 WSW 7 13 4 7 1012.5 1012.0 11.6
22/05:00am 12.0 9.3 10.4 90 0.9 WSW 15 19 8 10 1012.0 1011.5 11.6
22/04:30am 12.6 9.1 10.8 89 1.0 SW 20 26 11 14 1011.4 1010.9 11.6
22/04:27am 12.5 9.0 10.9 90 0.9 SW 20 28 11 15 1011.3 1010.8 11.6
22/04:00am 14.7 12.0 14.7 100 0.0 WNW 22 39 12 21 1010.7 1010.1 11.6
22/03:38am 14.5 12.3 14.5 100 0.0 NW 19 24 10 13 1010.1 1009.6 11.6
22/03:30am 14.5 12.1 14.5 100 0.0 NW 20 28 11 15 1010.0 1009.5 11.4
22/03:01am 14.3 10.4 14.3 100 0.0 NW 28 41 15 22 1010.1 1009.6 10.4
22/03:00am 14.3 10.0 14.3 100 0.0 NW 30 43 16 23 1010.0 1009.5 10.4
22/02:57am 14.2 9.3 14.2 100 0.0 NW 33 46 18 25 1010.3 1009.7 10.4
22/02:44am 13.9 10.6 13.9 100 0.0 NW 24 43 13 23 1010.1 1009.6 8.2
22/02:32am 14.4 13.0 14.4 100 0.0 NNW 15 20 8 11 1009.6 1009.0 1.8
22/02:30am 14.5 13.1 14.5 100 0.0 NNW 15 20 8 11 1009.9 1009.4 1.0
22/02:00am 14.5 13.9 14.5 100 0.0 NNW 11 13 6 7 1010.1 1009.6 0.0
22/01:30am 14.6 13.5 14.4 99 0.1 N 13 17 7 9 1010.6 1010.0 0.0
22/01:00am 14.5 12.8 13.7 95 0.5 N 15 19 8 10 1011.0 1010.5 0.0
22/12:30am 14.7 13.0 13.7 94 0.6 NNW 15 19 8 10 1011.2 1010.7 0.0
22/12:00am 15.1 13.1 13.8 92 0.8 N 17 20 9 11 1011.3 1010.8 0.0
 
Date/Time
EST
Temp
°C
App
Temp
°C
Dew
Point
°C
Rel
Hum
%
Delta-T
°C
Wind Press
QNH
hPa
Press
MSL
hPa
Rain since
9am
mm
Dir  Spd
km/h
Gust
km/h
Spd
kts
Gust
kts
21/11:30pm 14.2 11.8 13.7 97 0.3 N 19 22 10 12 1011.4 1010.9 0.0
21/11:00pm 15.4 12.0 13.8 90 0.9 N 24 28 13 15 1011.3 1010.8 0.0
21/10:30pm 16.0 10.1 13.5 85 1.5 N 37 48 20 26 1010.7 1010.1 0.0
21/10:00pm 16.8 9.7 13.5 81 1.9 N 43 59 23 32 1010.7 1010.1 0.0
21/09:59pm 16.9 9.8 13.4 80 2.0 N 43 59 23 32 1010.6 1010.0 0.0
21/09:30pm 17.4 13.3 15.9 91 0.9 N 32 41 17 22 1010.8 1010.2 0.0
21/09:00pm 17.9 15.6 16.6 92 0.8 N 24 30 13 16 1011.0 1010.5 0.0
21/08:30pm 17.7 16.1 16.4 92 0.8 N 20 26 11 14 1011.5 1011.0 0.0
21/08:00pm 18.2 16.4 16.0 87 1.4 N 20 30 11 16 1011.6 1011.1 0.0
21/07:30pm 17.6 16.8 15.2 86 1.4 N 13 20 7 11 1011.2 1010.7 0.0
21/07:00pm 18.1 16.2 15.2 83 1.8 N 19 24 10 13 1010.6 1010.0 0.0
21/06:30pm 18.4 17.4 15.5 83 1.8 N 15 19 8 10 1010.0 1009.5 0.0
21/06:00pm 19.1 16.8 14.6 75 2.7 NNW 20 24 11 13 1010.1 1009.6 0.0
21/05:30pm 19.6 17.4 14.8 74 2.9 N 20 26 11 14 1009.4 1008.8 0.0
21/05:00pm 20.1 17.5 14.9 72 3.2 NNW 22 26 12 14 1009.4 1008.8 0.0
21/04:30pm 21.5 18.7 15.3 68 3.8 NNW 24 30 13 16 1008.7 1008.2 0.0
21/04:00pm 22.3 18.3 14.2 60 4.9 NNW 28 39 15 21 1009.6 1009.0 0.0
21/03:30pm 22.1 19.2 15.0 64 4.3 N 24 35 13 19 1010.1 1009.6 0.0
21/03:00pm 23.3 19.6 15.1 60 5.1 NNW 28 35 15 19 1010.5 1009.9 0.0
21/02:30pm 22.9 18.2 13.1 54 5.8 NNW 30 43 16 23 1011.0 1010.5 0.0
21/02:00pm 23.1 17.7 12.1 50 6.5 NNW 32 43 17 23 1011.3 1010.8 0.0
21/01:30pm 23.4 17.9 11.8 48 6.8 NNW 32 41 17 22 1012.0 1011.5 0.0
21/01:00pm 23.1 17.9 11.5 48 6.7 NNW 30 43 16 23 1012.4 1011.9 0.0
21/12:30pm 22.7 17.3 12.3 52 6.1 NNW 32 39 17 21 1012.8 1012.3 0.0
21/12:00pm 22.8 19.7 14.6 60 5.0 NNW 24 32 13 17 1013.0 1012.5 0.0
21/11:30am 20.9 17.3 13.1 61 4.6 NNW 24 30 13 16 1013.3 1012.8 0.0
21/11:00am 21.4 17.8 14.1 63 4.4 N 26 39 14 21 1013.3 1012.8 0.0
21/10:30am 21.3 19.3 16.5 74 3.0 NNW 22 32 12 17 1013.8 1013.3 0.0
21/10:00am 19.8 17.4 16.4 81 2.1 N 24 32 13 17 1014.1 1013.6 0.0
21/09:30am 19.2 17.9 17.2 88 1.3 N 20 28 11 15 1014.2 1013.7 0.0
21/09:00am 18.3 17.1 16.1 87 1.4 N 17 22 9 12 1014.6 1014.1 17.6
21/08:30am 17.7 17.5 15.7 88 1.2 N 11 17 6 9 1014.6 1014.1 17.6
21/08:00am 17.0 16.7 16.4 96 0.4 N 13 17 7 9 1014.4 1014.0 17.6
21/07:30am 16.2 15.8 16.2 100 0.0 N 13 15 7 8 1014.2 1013.7 17.6
21/07:17am 15.8 15.6 15.8 100 0.0 NNW 11 13 6 7 1014.1 1013.6 17.6
21/07:00am 15.3 14.6 15.3 100 0.0 N 13 17 7 9 1014.1 1013.6 17.6
21/06:30am 14.4 13.0 14.4 100 0.0 NNW 15 19 8 10 1014.0 1013.5 17.6
21/06:00am 13.7 12.8 13.7 100 0.0 N 11 19 6 10 1014.1 1013.6 17.6
21/05:30am 13.2 12.1 13.2 100 0.0 N 11 15 6 8 1014.1 1013.6 17.6
21/05:00am 13.8 12.5 13.8 100 0.0 N 13 15 7 8 1014.2 1013.7 17.6
21/04:30am 14.1 13.3 14.1 100 0.0 N 11 15 6 8 1013.9 1013.4 17.6
21/04:00am 13.9 13.8 13.9 100 0.0 NNW 7 9 4 5 1013.9 1013.4 17.6
21/03:30am 14.3 14.0 14.3 100 0.0 N 9 13 5 7 1013.8 1013.3 17.6
21/03:00am 13.6 13.4 13.6 100 0.0 N 7 9 4 5 1013.9 1013.4 17.6
21/02:30am 13.0 13.9 13.0 100 0.0 CALM 0 0 0 0 1014.1 1013.6 17.6
21/02:00am 12.4 13.2 12.4 100 0.0 CALM 0 0 0 0 1014.3 1013.9 17.6
21/01:30am 12.3 13.0 12.3 100 0.0 CALM 0 0 0 0 1014.7 1014.2 17.6
21/01:00am 12.0 12.6 12.0 100 0.0 CALM 0 0 0 0 1014.8 1014.3 17.6
21/12:30am 11.9 12.5 11.9 100 0.0 CALM 0 0 0 0 1015.0 1014.5 17.6
21/12:03am 11.9 12.5 11.9 100 0.0 CALM 0 0 0 0 1015.1 1014.6 17.6
21/12:00am 11.9 12.5 11.9 100 0.0 CALM 0 0 0 0 1015.0 1014.5 17.6
 
Date/Time
EST
Temp
°C
App
Temp
°C
Dew
Point
°C
Rel
Hum
%
Delta-T
°C
Wind Press
QNH
hPa
Press
MSL
hPa
Rain since
9am
mm
Dir  Spd
km/h
Gust
km/h
Spd
kts
Gust
kts
20/11:30pm 11.6 12.1 11.6 100 0.0 CALM 0 0 0 0 1015.1 1014.6 17.6
20/11:00pm 11.3 11.7 11.3 100 0.0 CALM 0 0 0 0 1015.2 1014.7 17.6
20/10:50pm 11.0 11.0 11.0 100 0.0 N 2 6 1 3 1015.2 1014.7 17.6
20/10:42pm 11.1 10.7 11.1 100 0.0 N 4 7 2 4 1015.2 1014.7 17.6
20/10:30pm 11.2 10.3 11.2 100 0.0 N 7 9 4 5 1015.2 1014.7 17.6
20/10:23pm 11.1 10.1 11.1 100 0.0 N 7 9 4 5 1015.2 1014.7 17.6
20/10:00pm 11.2 10.3 11.2 100 0.0 N 7 9 4 5 1015.2 1014.7 17.4
20/09:30pm 11.1 9.8 11.1 100 0.0 NNE 9 9 5 5 1015.3 1014.8 17.4
20/09:00pm 11.3 10.0 11.3 100 0.0 NNE 9 11 5 6 1015.3 1014.8 17.4
20/08:30pm 11.4 10.5 11.4 100 0.0 NNE 7 7 4 4 1015.1 1014.6 17.4
20/08:00pm 11.5 10.6 11.5 100 0.0 NNE 7 9 4 5 1015.0 1014.5 17.4
20/07:30pm 11.9 11.2 11.9 100 0.0 NE 7 11 4 6 1014.8 1014.3 17.4
20/07:00pm 11.7 10.5 11.7 100 0.0 NE 9 11 5 6 1014.4 1014.0 17.4
20/06:30pm 12.0 10.5 12.0 100 0.0 NE 11 13 6 7 1014.2 1013.7 17.4
20/06:00pm 12.7 12.8 12.7 100 0.0 NNE 4 11 2 6 1014.0 1013.5 17.4
20/05:30pm 13.1 12.7 13.1 100 0.0 NW 7 9 4 5 1014.0 1013.5 17.4
20/05:00pm 13.3 12.6 13.3 100 0.0 W 9 11 5 6 1013.9 1013.4 17.2
20/04:57pm 13.2 12.5 13.2 100 0.0 W 9 19 5 10 1013.9 1013.4 17.2
20/04:42pm 13.7 11.6 13.7 100 0.0 NNW 17 26 9 14 1013.8 1013.3 16.8
20/04:30pm 14.9 12.2 12.9 88 1.1 N 19 24 10 13 1013.4 1012.9 15.2
20/04:00pm 15.6 13.3 13.1 85 1.4 N 17 20 9 11 1013.4 1012.9 15.2
20/03:30pm 15.0 12.9 13.7 92 0.8 N 17 20 9 11 1013.3 1012.8 15.2
20/03:00pm 15.2 13.4 13.2 88 1.2 N 15 22 8 12 1013.3 1012.8 15.2
20/02:30pm 15.4 13.7 13.6 89 1.0 N 15 19 8 10 1013.3 1012.8 15.2
20/02:00pm 14.8 12.6 13.3 91 0.9 NNW 17 22 9 12 1013.5 1013.0 15.2
20/01:30pm 13.9 11.2 13.4 97 0.3 NW 20 26 11 14 1013.8 1013.3 15.2
20/01:00pm 13.1 10.8 13.1 100 0.0 NW 17 22 9 12 1014.1 1013.6 15.0
20/12:54pm 12.7 10.3 12.7 100 0.0 NW 17 22 9 12 1014.2 1013.7 15.0
20/12:34pm 13.1 8.7 12.9 99 0.1 NW 28 41 15 22 1014.8 1014.3 13.6
20/12:30pm 14.4 10.5 13.3 93 0.6 NW 26 33 14 18 1014.3 1013.9 11.6
20/12:00pm 15.9 12.4 15.6 98 0.2 NNW 28 37 15 20 1014.6 1014.1 11.4
20/11:46am 14.6 10.8 14.6 100 0.0 NNW 28 39 15 21 1014.8 1014.3 11.4
20/11:30am 12.8 8.7 12.8 100 0.0 NW 26 35 14 19 1014.9 1014.4 10.8
20/11:27am 12.7 8.6 12.7 100 0.0 NW 26 35 14 19 1014.8 1014.3 10.4
20/11:15am 13.2 10.0 13.2 100 0.0 NNW 22 28 12 15 1014.9 1014.4 6.2
20/11:00am 13.9 11.3 13.9 100 0.0 N 20 28 11 15 1015.0 1014.5 4.6
20/10:30am 13.1 8.8 13.1 100 0.0 N 28 33 15 18 1015.2 1014.7 3.8
20/10:00am 13.0 9.8 13.0 100 0.0 N 22 32 12 17 1015.2 1014.7 2.8
20/09:55am 13.0 10.1 13.0 100 0.0 N 20 30 11 16 1015.3 1014.8 2.6
20/09:30am 12.5 8.7 12.5 100 0.0 N 24 32 13 17 1015.6 1015.2 1.6
20/09:23am 12.6 8.5 12.6 100 0.0 N 26 33 14 18 1015.6 1015.2 1.0
20/09:09am 12.9 8.9 12.9 100 0.0 NNE 26 32 14 17 1015.5 1015.1 0.2
20/09:00am 12.9 10.0 12.9 100 0.0 NNE 20 26 11 14 1015.6 1015.2 9.6
20/08:30am 12.5 9.5 12.5 100 0.0 N 20 28 11 15 1015.7 1015.3 9.4
20/08:00am 12.2 9.3 12.2 100 0.0 NNE 19 24 10 13 1015.8 1015.4 9.0
20/07:30am 11.9 9.6 11.9 100 0.0 N 15 17 8 9 1016.1 1015.6 7.8
20/07:00am 12.0 9.4 12.0 100 0.0 NNE 17 20 9 11 1015.9 1015.5 5.8
20/06:30am 12.1 9.9 12.1 100 0.0 N 15 20 8 11 1016.2 1015.7 3.8
20/06:00am 12.6 9.2 12.4 99 0.1 N 22 35 12 19 1016.1 1015.6 1.6
20/05:30am 13.0 9.7 12.8 99 0.1 NNE 22 28 12 15 1015.6 1015.2 1.0
20/05:00am 13.1 11.1 12.8 98 0.2 N 15 24 8 13 1015.9 1015.5 0.4
20/04:30am 13.1 9.7 12.6 97 0.3 NNE 22 32 12 17 1016.1 1015.6 0.4

Other formats

Comma delimited format used in spreadsheet applications
http://www.bom.gov.au/fwo/IDN60801/IDN60801.94729.axf

JavaScript Object Notation format (JSON) in row-major order
http://www.bom.gov.au/fwo/IDN60801/IDN60801.94729.json

Data quality

Most of these data are generated automatically and are frequently updated. Quality checks on data are not normally performed. It is possible for incorrect values to appear. Refer to information at About Latest Weather Observations and please check the disclaimer before using these data.